createdAt,value
2023-05-20T00:00:04.246Z,676.13
2023-05-20T00:02:32.766Z,679.30
2023-05-20T00:05:01.376Z,666.45
2023-05-20T00:07:29.914Z,666.15
2023-05-20T00:09:58.393Z,677.67
2023-05-20T00:12:26.797Z,692.30
2023-05-20T00:14:56.503Z,673.28
2023-05-20T00:17:26.523Z,681.88
2023-05-20T00:19:55.020Z,672.88
2023-05-20T00:22:23.809Z,674.92
2023-05-20T00:24:52.173Z,687.47
2023-05-20T00:27:20.613Z,698.28
2023-05-20T00:29:49.064Z,670.08
2023-05-20T00:32:21.585Z,666.25
2023-05-20T00:34:58.161Z,680.33
2023-05-20T00:37:26.587Z,686.63
2023-05-20T00:39:55.265Z,695.53
2023-05-20T00:42:23.780Z,677.83
2023-05-20T00:44:52.553Z,681.13
2023-05-20T00:47:24.251Z,672.05
2023-05-20T00:49:53.358Z,679.05
2023-05-20T00:52:21.795Z,675.80
2023-05-20T00:54:51.626Z,682.42
2023-05-20T00:57:21.358Z,654.80
2023-05-20T00:59:49.734Z,672.17
2023-05-20T01:02:18.281Z,684.40
2023-05-20T01:04:48.234Z,657.42
2023-05-20T01:07:18.663Z,663.97
2023-05-20T01:09:47.545Z,667.75
2023-05-20T01:12:19.271Z,666.97
2023-05-20T01:14:50.946Z,665.80
2023-05-20T01:17:20.965Z,662.53
2023-05-20T01:19:51.466Z,676.92
2023-05-20T01:22:19.971Z,673.75
2023-05-20T01:24:49.813Z,687.20
2023-05-20T01:27:20.560Z,660.97
2023-05-20T01:29:50.559Z,677.85
2023-05-20T01:32:21.625Z,673.67
2023-05-20T01:34:51.196Z,680.25
2023-05-20T01:37:20.681Z,681.45
2023-05-20T01:39:51.793Z,673.78
2023-05-20T01:42:21.471Z,659.80
2023-05-20T01:44:49.933Z,666.50
2023-05-20T01:47:18.376Z,658.90
2023-05-20T01:49:47.727Z,661.47
2023-05-20T01:52:16.165Z,666.42
2023-05-20T01:54:50.888Z,669.13
2023-05-20T01:57:21.300Z,680.15
2023-05-20T01:59:49.753Z,671.00
2023-05-20T02:02:18.291Z,676.00
2023-05-20T02:04:48.762Z,670.40
2023-05-20T02:07:18.668Z,665.17
2023-05-20T02:09:49.399Z,670.00
2023-05-20T02:12:17.904Z,690.97
2023-05-20T02:14:50.297Z,664.17
2023-05-20T02:17:19.226Z,684.17
2023-05-20T02:19:47.846Z,666.25
2023-05-20T02:22:16.273Z,671.47
2023-05-20T02:24:44.694Z,678.92
2023-05-20T02:27:13.241Z,655.05
2023-05-20T02:29:41.639Z,652.47
2023-05-20T02:32:11.379Z,665.95
2023-05-20T02:34:39.816Z,647.78
2023-05-20T02:37:08.260Z,703.40
2023-05-20T02:39:36.699Z,674.13
2023-05-20T02:42:05.734Z,666.95
2023-05-20T02:44:34.154Z,685.67
2023-05-20T02:47:02.576Z,675.75
2023-05-20T02:49:32.455Z,681.22
2023-05-20T02:52:00.976Z,683.97
2023-05-20T02:54:29.354Z,651.22
2023-05-20T02:56:57.738Z,667.45
2023-05-20T02:59:26.085Z,685.15
2023-05-20T03:01:54.510Z,677.38
2023-05-20T03:04:23.002Z,676.65
2023-05-20T03:06:52.906Z,684.13
2023-05-20T03:09:21.398Z,660.85
2023-05-20T03:11:50.064Z,666.67
2023-05-20T03:14:18.467Z,671.17
2023-05-20T03:16:47.065Z,675.03
2023-05-20T03:19:16.325Z,681.20
2023-05-20T03:21:46.603Z,673.05
2023-05-20T03:24:16.902Z,683.33
2023-05-20T03:26:46.517Z,677.35
2023-05-20T03:29:15.041Z,678.17
2023-05-20T03:31:43.542Z,687.53
2023-05-20T03:34:12.112Z,694.05
2023-05-20T03:36:41.459Z,677.85
2023-05-20T03:39:09.938Z,682.97
2023-05-20T03:41:39.836Z,692.17
2023-05-20T03:44:08.285Z,689.08
2023-05-20T03:46:39.834Z,693.20
2023-05-20T03:49:08.294Z,669.92
2023-05-20T03:51:36.799Z,693.72
2023-05-20T03:54:05.199Z,684.17
2023-05-20T03:56:33.800Z,689.20
2023-05-20T03:59:03.586Z,704.85
2023-05-20T04:01:32.041Z,701.28
2023-05-20T04:04:00.565Z,685.63
2023-05-20T04:06:29.017Z,672.63
2023-05-20T04:08:57.402Z,662.33
2023-05-20T04:11:25.918Z,688.20
2023-05-20T04:13:54.945Z,655.92
2023-05-20T04:16:25.097Z,679.13
2023-05-20T04:18:53.585Z,665.97
2023-05-20T04:21:22.066Z,657.90
2023-05-20T04:23:50.428Z,711.58
2023-05-20T04:26:18.870Z,665.88
2023-05-20T04:28:48.717Z,676.38
2023-05-20T04:31:17.630Z,675.45
2023-05-20T04:33:47.450Z,684.13
2023-05-20T04:36:16.791Z,704.15
2023-05-20T04:38:45.442Z,699.47
2023-05-20T04:41:13.850Z,689.47
2023-05-20T04:43:42.900Z,705.72
2023-05-20T04:46:11.328Z,701.00
2023-05-20T04:48:39.746Z,708.83
2023-05-20T04:51:09.884Z,686.03
2023-05-20T04:53:38.711Z,674.42
2023-05-20T04:56:08.203Z,653.60
2023-05-20T04:58:36.600Z,679.70
2023-05-20T05:01:05.043Z,656.20
2023-05-20T05:03:35.855Z,646.10
2023-05-20T05:06:05.082Z,665.00
2023-05-20T05:08:34.887Z,687.83
2023-05-20T05:11:03.259Z,666.90
2023-05-20T05:13:31.602Z,664.78
2023-05-20T05:16:00.617Z,651.65
2023-05-20T05:18:29.391Z,668.70
2023-05-20T05:21:02.054Z,677.72
2023-05-20T05:23:30.820Z,998.22
2023-05-20T05:26:00.808Z,684.50
2023-05-20T05:28:29.269Z,664.90
2023-05-20T05:30:57.911Z,667.08
2023-05-20T05:33:26.370Z,663.42
2023-05-20T05:35:56.713Z,644.65
2023-05-20T05:38:25.155Z,693.50
2023-05-20T05:40:53.919Z,798.10
2023-05-20T05:43:23.735Z,711.25
2023-05-20T05:45:52.174Z,724.95
2023-05-20T05:48:20.606Z,733.83
2023-05-20T05:50:49.021Z,690.38
2023-05-20T05:53:17.423Z,724.40
2023-05-20T05:55:47.902Z,725.53
2023-05-20T05:58:16.427Z,755.00
2023-05-20T06:00:46.333Z,697.60
2023-05-20T06:03:14.843Z,666.67
2023-05-20T06:05:47.184Z,693.33
2023-05-20T06:08:15.957Z,690.88
2023-05-20T06:10:48.019Z,697.40
2023-05-20T06:13:16.485Z,672.63
2023-05-20T06:15:47.145Z,673.95
2023-05-20T06:18:15.583Z,698.15
2023-05-20T06:20:44.069Z,712.58
2023-05-20T06:23:12.617Z,710.70
2023-05-20T06:25:41.176Z,664.08
2023-05-20T06:28:09.632Z,691.00
2023-05-20T06:30:38.713Z,671.58
2023-05-20T06:33:08.603Z,651.63
2023-05-20T06:35:37.258Z,656.05
2023-05-20T06:38:06.059Z,676.03
2023-05-20T06:40:34.679Z,656.20
2023-05-20T06:43:03.768Z,667.85
2023-05-20T06:45:32.358Z,685.97
2023-05-20T06:48:02.127Z,702.28
2023-05-20T06:50:32.129Z,697.20
2023-05-20T06:53:01.146Z,692.28
2023-05-20T06:55:30.180Z,696.53
2023-05-20T06:57:58.970Z,738.78
2023-05-20T07:00:28.037Z,743.67
2023-05-20T07:02:57.444Z,714.05
2023-05-20T07:05:27.809Z,721.38
2023-05-20T07:07:58.506Z,729.00
2023-05-20T07:10:28.056Z,721.05
2023-05-20T07:12:56.538Z,692.60
2023-05-20T07:15:27.545Z,711.53
2023-05-20T07:17:56.123Z,696.03
2023-05-20T07:20:24.716Z,718.95
2023-05-20T07:22:53.230Z,712.72
2023-05-20T07:25:23.510Z,698.55
2023-05-20T07:27:51.986Z,706.08
2023-05-20T07:30:20.705Z,719.22
2023-05-20T07:32:49.298Z,716.38
2023-05-20T07:35:17.979Z,718.03
2023-05-20T07:37:46.615Z,707.30
2023-05-20T07:40:15.532Z,723.78
2023-05-20T07:42:45.334Z,732.80
2023-05-20T07:45:14.288Z,729.28
2023-05-20T07:47:42.815Z,749.42
2023-05-20T07:50:11.983Z,740.33
2023-05-20T07:52:55.029Z,763.50
2023-05-20T07:55:24.156Z,801.03
2023-05-20T07:57:53.939Z,727.45
2023-05-20T08:00:22.765Z,724.95
2023-05-20T08:02:51.429Z,767.47
2023-05-20T08:05:20.162Z,999.90
2023-05-20T08:07:48.683Z,832.17
2023-05-20T08:10:17.020Z,781.00
2023-05-20T08:12:45.453Z,765.13
2023-05-20T08:15:15.256Z,743.97
2023-05-20T08:17:43.838Z,707.20
2023-05-20T08:20:14.852Z,760.65
2023-05-20T08:22:43.697Z,716.10
2023-05-20T08:25:12.497Z,754.50
2023-05-20T08:27:44.235Z,736.72
2023-05-20T08:30:14.584Z,719.63
2023-05-20T08:32:43.159Z,748.17
2023-05-20T08:35:12.207Z,797.88
2023-05-20T08:37:40.845Z,797.55
2023-05-20T08:40:11.964Z,713.33
2023-05-20T08:42:43.657Z,806.53
2023-05-20T08:45:14.552Z,812.30
2023-05-20T08:47:44.063Z,733.58
2023-05-20T08:50:13.652Z,757.38
2023-05-20T08:52:45.337Z,745.20
2023-05-20T08:55:18.142Z,735.40
2023-05-20T08:57:47.243Z,728.95
2023-05-20T09:00:18.371Z,704.70
2023-05-20T09:02:47.508Z,716.85
2023-05-20T09:05:15.969Z,722.78
2023-05-20T09:07:44.498Z,721.58
2023-05-20T09:10:12.959Z,741.05
2023-05-20T09:12:41.394Z,732.78
2023-05-20T09:15:10.756Z,715.35
2023-05-20T09:17:40.738Z,702.22
2023-05-20T09:20:11.203Z,751.70
2023-05-20T09:22:41.147Z,738.47
2023-05-20T09:25:12.409Z,727.40
2023-05-20T09:27:42.179Z,732.60
2023-05-20T09:30:12.969Z,734.55
2023-05-20T09:32:42.884Z,724.30
2023-05-20T09:35:15.626Z,733.72
2023-05-20T09:37:45.204Z,761.92
2023-05-20T09:40:15.285Z,814.92
2023-05-20T09:42:45.579Z,739.30
2023-05-20T09:45:13.992Z,725.60
2023-05-20T09:47:45.388Z,747.55
2023-05-20T09:50:15.009Z,738.85
2023-05-20T09:52:44.055Z,717.90
2023-05-20T09:55:12.890Z,779.10
2023-05-20T09:57:41.822Z,999.90
2023-05-20T10:00:13.556Z,724.42
2023-05-20T10:02:46.216Z,739.90
2023-05-20T10:05:18.677Z,767.63
2023-05-20T10:08:27.269Z,752.10
2023-05-20T10:11:04.687Z,734.25
2023-05-20T10:13:55.210Z,734.88
2023-05-20T10:16:31.099Z,738.42
2023-05-20T10:19:09.338Z,714.95
2023-05-20T10:21:37.862Z,751.72
2023-05-20T10:24:09.767Z,741.33
2023-05-20T10:26:38.651Z,757.55
2023-05-20T10:29:17.528Z,703.75
2023-05-20T10:31:47.049Z,750.90
2023-05-20T10:34:18.929Z,731.72
2023-05-20T10:36:49.466Z,753.45
2023-05-20T10:39:18.509Z,771.60
2023-05-20T10:41:47.168Z,754.30
2023-05-20T10:44:15.686Z,735.35
2023-05-20T10:49:37.272Z,782.75
2023-05-20T10:52:08.522Z,738.03
2023-05-20T10:54:38.713Z,737.13
2023-05-20T10:57:09.935Z,733.40
2023-05-20T10:59:38.826Z,733.35
2023-05-20T11:02:07.380Z,778.97
2023-05-20T11:04:37.672Z,742.58
2023-05-20T11:07:06.457Z,761.17
2023-05-20T11:09:34.987Z,738.88
2023-05-20T11:12:03.499Z,778.85
2023-05-20T11:14:32.124Z,756.35
2023-05-20T11:17:01.124Z,704.40
2023-05-20T11:19:29.954Z,743.33
2023-05-20T11:21:59.967Z,770.78
2023-05-20T11:24:29.813Z,743.03
2023-05-20T11:27:01.136Z,736.83
2023-05-20T11:29:32.188Z,731.90
2023-05-20T11:32:01.722Z,734.67
2023-05-20T11:34:35.518Z,756.85
2023-05-20T11:37:09.861Z,669.78
2023-05-20T11:39:39.295Z,718.70
2023-05-20T11:42:08.104Z,684.63
2023-05-20T11:44:36.678Z,726.85
2023-05-20T11:47:05.726Z,719.53
2023-05-20T11:49:42.076Z,772.08
2023-05-20T11:52:12.780Z,709.85
2023-05-20T11:54:41.237Z,759.63
2023-05-20T11:57:09.963Z,696.97
2023-05-20T11:59:38.367Z,752.88
2023-05-20T12:02:07.227Z,750.88
2023-05-20T12:04:35.678Z,693.83
2023-05-20T12:07:06.989Z,661.47
2023-05-20T12:09:36.751Z,697.78
2023-05-20T12:12:05.792Z,728.97
2023-05-20T12:14:34.864Z,664.97
2023-05-20T12:17:03.430Z,654.33
2023-05-20T12:19:33.161Z,657.00
2023-05-20T12:22:04.533Z,639.28
2023-05-20T12:24:33.002Z,797.15
2023-05-20T12:27:06.548Z,664.03
2023-05-20T12:29:35.082Z,624.28
2023-05-20T12:32:03.576Z,642.35
2023-05-20T12:34:33.133Z,659.90
2023-05-20T12:37:01.690Z,666.70
2023-05-20T12:39:30.146Z,656.50
2023-05-20T12:41:58.559Z,720.60
2023-05-20T12:44:28.671Z,642.67
2023-05-20T12:46:57.655Z,666.58
2023-05-20T12:49:26.180Z,660.20
2023-05-20T12:51:54.572Z,666.40
2023-05-20T12:54:23.139Z,664.15
2023-05-20T12:56:51.580Z,663.53
2023-05-20T12:59:20.031Z,705.53
2023-05-20T13:01:49.971Z,667.42
2023-05-20T13:04:18.514Z,651.40
2023-05-20T13:06:47.030Z,654.50
2023-05-20T13:09:16.068Z,649.88
2023-05-20T13:11:45.223Z,673.75
2023-05-20T13:14:15.694Z,673.47
2023-05-20T13:16:46.193Z,644.25
2023-05-20T13:19:16.319Z,685.33
2023-05-20T13:21:46.790Z,706.15
2023-05-20T13:24:15.709Z,722.97
2023-05-20T13:26:44.737Z,654.72
2023-05-20T13:29:13.522Z,650.90
2023-05-20T13:31:41.916Z,634.75
2023-05-20T13:34:10.326Z,633.38
2023-05-20T13:36:40.492Z,646.30
2023-05-20T13:39:09.014Z,643.65
2023-05-20T13:41:37.430Z,641.03
2023-05-20T13:44:06.161Z,639.22
2023-05-20T13:46:34.812Z,635.90
2023-05-20T13:49:03.463Z,648.78
2023-05-20T13:51:32.684Z,699.53
2023-05-20T13:54:02.529Z,657.28
2023-05-20T13:56:30.997Z,695.45
2023-05-20T13:58:59.406Z,738.97
2023-05-20T14:01:28.817Z,674.40
2023-05-20T14:03:57.364Z,672.50
2023-05-20T14:06:26.052Z,656.30
2023-05-20T14:08:57.423Z,669.53
2023-05-20T14:11:27.321Z,646.90
2023-05-20T14:13:56.131Z,643.63
2023-05-20T14:16:24.746Z,651.55
2023-05-20T14:18:53.694Z,650.30
2023-05-20T14:21:22.207Z,655.60
2023-05-20T14:23:50.855Z,655.00
2023-05-20T14:26:19.259Z,722.70
2023-05-20T14:28:49.124Z,638.35
2023-05-20T14:31:18.100Z,644.75
2023-05-20T14:33:47.240Z,648.80
2023-05-20T14:36:16.319Z,651.25
2023-05-20T14:38:44.926Z,663.88
2023-05-20T14:41:13.644Z,677.22
2023-05-20T14:43:42.026Z,656.70
2023-05-20T14:46:12.035Z,660.17
2023-05-20T14:48:40.466Z,651.25
2023-05-20T14:51:09.065Z,646.22
2023-05-20T14:53:37.453Z,631.78
2023-05-20T14:56:06.345Z,645.88
2023-05-20T14:58:34.729Z,632.20
2023-05-20T15:01:03.348Z,630.08
2023-05-20T15:03:33.382Z,722.58
2023-05-20T15:06:01.927Z,642.25
2023-05-20T15:08:30.275Z,638.20
2023-05-20T15:10:58.736Z,667.00
2023-05-20T15:13:27.117Z,645.03
2023-05-20T15:15:55.646Z,650.22
2023-05-20T15:18:24.117Z,714.80
2023-05-20T15:20:53.990Z,693.97
2023-05-20T15:23:22.389Z,699.28
2023-05-20T15:25:51.326Z,658.55
2023-05-20T15:28:20.112Z,661.20
2023-05-20T15:30:52.559Z,657.78
2023-05-20T15:33:21.310Z,650.05
2023-05-20T15:36:05.942Z,650.50
2023-05-20T15:38:38.837Z,652.58
2023-05-20T15:41:08.104Z,655.08
2023-05-20T15:43:36.590Z,709.53
2023-05-20T15:46:05.115Z,661.25
2023-05-20T15:48:34.853Z,660.50
2023-05-20T15:51:03.574Z,657.92
2023-05-20T15:53:32.531Z,676.80
2023-05-20T15:56:02.657Z,682.00
2023-05-20T15:58:31.052Z,662.40
2023-05-20T16:00:59.949Z,709.97
2023-05-20T16:03:29.136Z,683.78
2023-05-20T16:05:57.638Z,667.85
2023-05-20T16:08:26.217Z,683.70
2023-05-20T16:10:55.572Z,663.63
2023-05-20T16:13:25.478Z,662.08
2023-05-20T16:15:57.555Z,670.85
2023-05-20T16:18:28.531Z,718.03
2023-05-20T16:20:57.032Z,688.55
2023-05-20T16:23:25.692Z,701.65
2023-05-20T16:25:54.109Z,659.35
2023-05-20T16:28:25.395Z,673.80
2023-05-20T16:30:54.013Z,669.65
2023-05-20T16:33:22.412Z,676.22
2023-05-20T16:35:50.799Z,668.92
2023-05-20T16:38:19.253Z,688.60
2023-05-20T16:40:47.667Z,688.33
2023-05-20T16:43:16.259Z,688.58
2023-05-20T16:45:46.119Z,737.75
2023-05-20T16:48:14.672Z,690.28
2023-05-20T16:50:43.182Z,718.40
2023-05-20T16:53:11.893Z,691.28
2023-05-20T16:55:40.675Z,710.13
2023-05-20T16:58:09.214Z,699.10
2023-05-20T17:00:37.616Z,700.85
2023-05-20T17:03:07.490Z,715.83
2023-05-20T17:05:36.451Z,714.33
2023-05-20T17:08:05.037Z,731.70
2023-05-20T17:10:33.683Z,715.13
2023-05-20T17:13:02.256Z,713.70
2023-05-20T17:15:30.715Z,721.13
2023-05-20T17:17:59.183Z,711.28
2023-05-20T17:20:28.987Z,733.97
2023-05-20T17:22:57.460Z,741.13
2023-05-20T17:25:26.001Z,758.05
2023-05-20T17:27:54.637Z,810.20
2023-05-20T17:30:23.293Z,776.70
2023-05-20T17:32:53.902Z,796.70
2023-05-20T17:35:25.883Z,802.67
2023-05-20T17:37:56.042Z,801.10
2023-05-20T17:40:24.594Z,890.97
2023-05-20T17:42:53.064Z,807.88
2023-05-20T17:45:21.529Z,809.13
2023-05-20T17:47:50.011Z,811.22
2023-05-20T17:50:18.887Z,791.42
2023-05-20T17:52:47.668Z,806.17
2023-05-20T17:55:18.389Z,836.08
2023-05-20T17:57:46.806Z,896.85
2023-05-20T18:00:15.746Z,805.60
2023-05-20T18:02:47.885Z,796.63
2023-05-20T18:05:17.329Z,834.15
2023-05-20T18:07:46.009Z,813.83
2023-05-20T18:10:15.908Z,795.80
2023-05-20T18:12:45.314Z,781.10
2023-05-20T18:15:14.310Z,777.58
2023-05-20T18:17:42.758Z,772.40
2023-05-20T18:20:12.480Z,771.47
2023-05-20T18:22:45.135Z,786.17
2023-05-20T18:25:13.730Z,761.38
2023-05-20T18:27:43.983Z,751.15
2023-05-20T18:30:12.667Z,759.70
2023-05-20T18:32:41.333Z,758.33
2023-05-20T18:35:10.529Z,741.97
2023-05-20T18:37:38.904Z,736.50
2023-05-20T18:40:08.550Z,749.20
2023-05-20T18:42:37.245Z,727.58
2023-05-20T18:45:08.442Z,727.58
2023-05-20T18:47:36.965Z,742.53
2023-05-20T18:50:06.134Z,754.08
2023-05-20T18:52:34.542Z,723.00
2023-05-20T18:55:02.969Z,730.47
2023-05-20T18:57:31.630Z,723.92
2023-05-20T19:00:00.196Z,719.63
2023-05-20T19:02:30.540Z,735.97
2023-05-20T19:04:58.993Z,715.05
2023-05-20T19:07:27.477Z,711.00
2023-05-20T19:09:56.885Z,726.35
2023-05-20T19:12:25.578Z,703.63
2023-05-20T19:14:54.005Z,715.75
2023-05-20T19:17:22.453Z,724.40
2023-05-20T19:19:52.466Z,724.38
2023-05-20T19:22:20.890Z,720.75
2023-05-20T19:24:49.295Z,706.42
2023-05-20T19:27:17.759Z,687.55
2023-05-20T19:29:46.190Z,719.15
2023-05-20T19:32:14.584Z,721.42
2023-05-20T19:34:43.809Z,692.08
2023-05-20T19:37:13.686Z,699.45
2023-05-20T19:39:42.107Z,731.90
2023-05-20T19:42:10.487Z,724.60
2023-05-20T19:44:38.913Z,714.58
2023-05-20T19:47:07.861Z,731.30
2023-05-20T19:49:36.318Z,725.65
2023-05-20T19:52:04.988Z,771.10
2023-05-20T19:54:34.774Z,732.78
2023-05-20T19:57:03.155Z,735.65
2023-05-20T19:59:31.752Z,697.30
2023-05-20T20:02:02.815Z,736.42
2023-05-20T20:04:31.519Z,776.95
2023-05-20T20:07:00.076Z,742.08
2023-05-20T20:09:28.594Z,736.00
2023-05-20T20:11:58.499Z,740.63
2023-05-20T20:14:26.916Z,732.15
2023-05-20T20:16:55.534Z,715.55
2023-05-20T20:19:26.083Z,737.03
2023-05-20T20:21:56.550Z,739.15
2023-05-20T20:24:25.141Z,741.60
2023-05-20T20:26:54.282Z,740.63
2023-05-20T20:29:24.445Z,722.30
2023-05-20T20:31:53.083Z,741.70
2023-05-20T20:34:22.019Z,738.10
2023-05-20T20:36:51.250Z,747.97
2023-05-20T20:39:19.959Z,724.33
2023-05-20T20:41:50.456Z,731.60
2023-05-20T20:44:22.501Z,742.83
2023-05-20T20:46:52.637Z,732.90
2023-05-20T20:49:22.018Z,734.67
2023-05-20T20:51:51.381Z,742.45
2023-05-20T20:54:19.736Z,704.22
2023-05-20T20:56:48.395Z,737.28
2023-05-20T20:59:16.836Z,745.53
2023-05-20T21:01:45.439Z,717.38
2023-05-20T21:04:17.268Z,716.38
2023-05-20T21:06:46.209Z,732.58
2023-05-20T21:09:14.647Z,731.90
2023-05-20T21:11:43.249Z,719.70
2023-05-20T21:14:12.022Z,715.40
2023-05-20T21:16:42.012Z,716.22
2023-05-20T21:19:10.669Z,716.00
2023-05-20T21:21:40.546Z,708.67
2023-05-20T21:24:09.259Z,732.35
2023-05-20T21:26:37.686Z,712.58
2023-05-20T21:29:07.313Z,722.15
2023-05-20T21:31:35.754Z,708.75
2023-05-20T21:34:05.451Z,713.95
2023-05-20T21:36:33.874Z,719.83
2023-05-20T21:39:03.887Z,744.80
2023-05-20T21:41:32.365Z,704.65
2023-05-20T21:44:00.766Z,719.60
2023-05-20T21:46:29.207Z,695.72
2023-05-20T21:48:57.825Z,691.40
2023-05-20T21:51:26.238Z,698.70
2023-05-20T21:53:56.789Z,703.60
2023-05-20T21:56:27.361Z,700.95
2023-05-20T21:58:55.755Z,717.55
2023-05-20T22:01:24.205Z,708.25
2023-05-20T22:03:53.346Z,706.03
2023-05-20T22:06:22.458Z,711.50
2023-05-20T22:08:51.353Z,693.97
2023-05-20T22:11:21.689Z,706.15
2023-05-20T22:13:53.617Z,701.35
2023-05-20T22:16:22.352Z,697.03
2023-05-20T22:18:50.818Z,697.05
2023-05-20T22:21:19.864Z,720.22
2023-05-20T22:23:48.821Z,705.58
2023-05-20T22:26:18.851Z,756.22
2023-05-20T22:28:47.340Z,700.03
2023-05-20T22:31:17.116Z,692.55
2023-05-20T22:33:45.541Z,685.63
2023-05-20T22:36:13.984Z,722.08
2023-05-20T22:38:42.827Z,715.80
2023-05-20T22:41:11.268Z,705.17
2023-05-20T22:43:39.684Z,699.50
2023-05-20T22:46:08.101Z,713.78
2023-05-20T22:48:37.799Z,721.92
2023-05-20T22:51:08.843Z,710.33
2023-05-20T22:53:37.325Z,746.45
2023-05-20T22:56:06.389Z,684.35
2023-05-20T22:58:39.495Z,700.75
2023-05-20T23:01:08.117Z,709.25
2023-05-20T23:03:38.215Z,681.58
2023-05-20T23:06:06.674Z,688.15
2023-05-20T23:08:35.291Z,684.50
2023-05-20T23:11:03.672Z,710.10
2023-05-20T23:13:32.377Z,707.28
2023-05-20T23:16:01.380Z,707.10
2023-05-20T23:18:30.430Z,710.13
2023-05-20T23:21:00.606Z,720.83
2023-05-20T23:23:31.848Z,715.92
2023-05-20T23:26:01.566Z,706.65
2023-05-20T23:28:30.060Z,706.63
2023-05-20T23:30:59.102Z,703.17
2023-05-20T23:33:27.597Z,710.45
2023-05-20T23:35:56.043Z,725.80
2023-05-20T23:38:25.947Z,714.22
2023-05-20T23:40:54.409Z,719.35
2023-05-20T23:43:22.755Z,722.90
2023-05-20T23:45:51.153Z,721.20
2023-05-20T23:48:19.840Z,727.70
2023-05-20T23:50:48.903Z,705.95
2023-05-20T23:53:17.459Z,722.85
2023-05-20T23:55:49.468Z,736.97
2023-05-20T23:58:17.856Z,722.80
